createdAt,value
2022-12-13T00:00:56.520Z,-3.09
2022-12-13T00:03:23.020Z,-3.09
2022-12-13T00:05:49.488Z,-3.13
2022-12-13T00:08:16.097Z,-3.18
2022-12-13T00:10:42.550Z,-3.23
2022-12-13T00:13:09.013Z,-3.19
2022-12-13T00:15:35.829Z,-3.16
2022-12-13T00:18:02.368Z,-3.20
2022-12-13T00:20:28.916Z,-3.20
2022-12-13T00:22:55.407Z,-3.15
2022-12-13T00:25:22.087Z,-3.13
2022-12-13T00:27:48.831Z,-3.14
2022-12-13T00:30:15.466Z,-3.16
2022-12-13T00:32:43.030Z,-3.11
2022-12-13T00:35:09.864Z,-3.13
2022-12-13T00:37:36.330Z,-3.13
2022-12-13T00:40:03.051Z,-3.04
2022-12-13T00:42:29.548Z,-3.08
2022-12-13T00:44:56.074Z,-3.09
2022-12-13T00:47:23.518Z,-2.94
2022-12-13T00:49:50.068Z,-2.93
2022-12-13T00:52:16.655Z,-2.90
2022-12-13T00:54:43.197Z,-2.88
2022-12-13T00:57:09.768Z,-2.97
2022-12-13T00:59:36.315Z,-2.86
2022-12-13T01:02:02.860Z,-2.89
2022-12-13T01:04:29.420Z,-2.86
2022-12-13T01:06:55.994Z,-2.95
2022-12-13T01:09:27.265Z,-2.84
2022-12-13T01:11:57.936Z,-2.90
2022-12-13T01:14:25.098Z,-3.04
2022-12-13T01:16:51.613Z,-2.95
2022-12-13T01:19:18.243Z,-2.94
2022-12-13T01:21:44.794Z,-2.93
2022-12-13T01:24:11.240Z,-2.95
2022-12-13T01:26:38.436Z,-2.92
2022-12-13T01:29:05.886Z,-2.90
2022-12-13T01:31:33.878Z,-2.98
2022-12-13T01:34:00.873Z,-3.00
2022-12-13T01:36:28.476Z,-3.09
2022-12-13T01:38:58.002Z,-3.04
2022-12-13T01:41:27.040Z,-3.03
2022-12-13T01:43:56.472Z,-3.02
2022-12-13T01:46:23.467Z,-3.07
2022-12-13T01:48:55.654Z,-3.17
2022-12-13T01:51:29.553Z,-3.16
2022-12-13T01:53:58.545Z,-3.22
2022-12-13T01:56:30.363Z,-3.27
2022-12-13T01:58:57.836Z,-3.30
2022-12-13T02:01:24.803Z,-3.36
2022-12-13T02:03:51.331Z,-3.32
2022-12-13T02:06:42.557Z,-3.34
2022-12-13T02:09:09.288Z,-3.32
2022-12-13T02:11:38.298Z,-3.36
2022-12-13T02:14:05.679Z,-3.29
2022-12-13T02:17:01.501Z,-3.27
2022-12-13T02:19:40.234Z,-3.21
2022-12-13T02:22:33.047Z,-3.15
2022-12-13T02:25:14.709Z,-3.10
2022-12-13T02:28:30.254Z,-3.07
2022-12-13T02:31:04.321Z,-3.00
2022-12-13T02:34:14.188Z,-2.94
2022-12-13T02:37:01.550Z,-2.92
2022-12-13T02:39:31.503Z,-2.99
2022-12-13T02:42:21.820Z,-3.00
2022-12-13T02:44:54.003Z,-3.01
2022-12-13T02:47:22.910Z,-2.98
2022-12-13T02:49:55.690Z,-2.86
2022-12-13T02:52:25.358Z,-2.85
2022-12-13T02:54:55.097Z,-2.81
2022-12-13T02:57:41.806Z,-2.81
2022-12-13T03:00:09.068Z,-2.76
2022-12-13T03:03:13.113Z,-2.76
2022-12-13T03:06:18.519Z,-2.78
2022-12-13T03:09:14.754Z,-2.74
2022-12-13T03:12:33.955Z,-2.74
2022-12-13T03:15:10.871Z,-2.70
2022-12-13T03:17:43.409Z,-2.69
2022-12-13T03:20:22.228Z,-2.62
2022-12-13T03:22:50.363Z,-2.71
2022-12-13T03:25:31.318Z,-2.63
2022-12-13T03:28:00.966Z,-2.68
2022-12-13T03:30:29.158Z,-2.61
2022-12-13T03:32:55.682Z,-2.65
2022-12-13T03:35:22.896Z,-2.56
2022-12-13T03:37:49.705Z,-2.55
2022-12-13T03:40:16.574Z,-2.61
2022-12-13T03:42:43.109Z,-2.60
2022-12-13T03:45:09.785Z,-2.60
2022-12-13T03:47:36.242Z,-2.60
2022-12-13T03:50:25.842Z,-2.59
2022-12-13T03:52:51.347Z,-2.65
2022-12-13T03:55:18.618Z,-2.57
2022-12-13T03:57:45.049Z,-2.65
2022-12-13T04:00:12.098Z,-2.63
2022-12-13T04:02:38.793Z,-2.63
2022-12-13T04:05:06.008Z,-2.58
2022-12-13T04:07:34.531Z,-2.57
2022-12-13T04:10:01.607Z,-2.57
2022-12-13T04:12:48.556Z,-2.57
2022-12-13T04:15:15.981Z,-2.53
2022-12-13T04:17:42.691Z,-2.57
2022-12-13T04:20:09.671Z,-2.50
2022-12-13T04:22:36.310Z,-2.64
2022-12-13T04:25:03.752Z,-2.56
2022-12-13T04:27:30.220Z,-2.61
2022-12-13T04:29:56.785Z,-2.61
2022-12-13T04:32:26.597Z,-2.58
2022-12-13T04:35:01.079Z,-2.58
2022-12-13T04:37:28.489Z,-2.59
2022-12-13T04:40:00.573Z,-2.58
2022-12-13T04:42:27.592Z,-2.62
2022-12-13T04:44:54.368Z,-2.57
2022-12-13T04:47:20.822Z,-2.57
2022-12-13T04:49:47.922Z,-2.58
2022-12-13T04:52:22.609Z,-2.54
2022-12-13T04:54:55.691Z,-2.60
2022-12-13T04:57:22.886Z,-2.59
2022-12-13T04:59:49.384Z,-2.62
2022-12-13T05:02:23.458Z,-2.71
2022-12-13T05:04:53.557Z,-2.84
2022-12-13T05:07:20.684Z,-2.86
2022-12-13T05:09:47.245Z,-2.94
2022-12-13T05:12:22.284Z,-3.04
2022-12-13T05:14:50.228Z,-3.06
2022-12-13T05:17:16.804Z,-3.02
2022-12-13T05:19:43.252Z,-3.05
2022-12-13T05:22:19.687Z,-3.11
2022-12-13T05:24:47.991Z,-3.02
2022-12-13T05:27:24.508Z,-2.95
2022-12-13T05:29:57.680Z,-2.88
2022-12-13T05:32:43.507Z,-2.92
2022-12-13T05:35:22.506Z,-2.97
2022-12-13T05:37:53.815Z,-2.91
2022-12-13T05:40:22.187Z,-2.97
2022-12-13T05:42:48.605Z,-2.96
2022-12-13T05:45:16.553Z,-2.97
2022-12-13T05:47:43.429Z,-2.98
2022-12-13T05:50:10.751Z,-3.01
2022-12-13T05:52:37.174Z,-3.06
2022-12-13T05:55:04.028Z,-2.97
2022-12-13T05:57:30.663Z,-3.07
2022-12-13T05:59:57.081Z,-3.14
2022-12-13T06:02:23.819Z,-3.17
2022-12-13T06:04:50.388Z,-3.26
2022-12-13T06:07:16.894Z,-3.26
2022-12-13T06:09:43.365Z,-3.25
2022-12-13T06:12:31.053Z,-3.26
2022-12-13T06:15:21.767Z,-3.33
2022-12-13T06:17:43.296Z,-3.40
2022-12-13T06:20:24.322Z,-3.41
2022-12-13T06:22:52.309Z,-3.42
2022-12-13T06:25:30.582Z,-3.44
2022-12-13T06:27:58.104Z,-3.41
2022-12-13T06:30:27.519Z,-3.44
2022-12-13T06:32:54.057Z,-3.44
2022-12-13T06:35:29.903Z,-3.45
2022-12-13T06:38:01.477Z,-3.48
2022-12-13T06:40:29.213Z,-3.46
2022-12-13T06:42:55.747Z,-3.48
2022-12-13T06:45:22.501Z,-3.50
2022-12-13T06:47:48.971Z,-3.52
2022-12-13T06:50:15.517Z,-3.49
2022-12-13T06:52:41.974Z,-3.58
2022-12-13T06:55:08.938Z,-3.57
2022-12-13T06:57:36.129Z,-3.61
2022-12-13T07:00:04.992Z,-3.59
2022-12-13T07:02:32.603Z,-3.60
2022-12-13T07:04:59.176Z,-3.64
2022-12-13T07:07:26.157Z,-3.53
2022-12-13T07:09:53.056Z,-3.64
2022-12-13T07:12:21.066Z,-3.65
2022-12-13T07:14:48.597Z,-3.65
2022-12-13T07:17:33.256Z,-3.66
2022-12-13T07:20:10.442Z,-3.68
2022-12-13T07:22:43.280Z,-3.74
2022-12-13T07:25:27.742Z,-3.67
2022-12-13T07:28:03.332Z,-3.73
2022-12-13T07:30:40.760Z,-3.71
2022-12-13T07:33:09.240Z,-3.75
2022-12-13T07:35:37.224Z,-3.86
2022-12-13T07:38:04.387Z,-3.79
2022-12-13T07:40:30.832Z,-3.75
2022-12-13T07:42:57.426Z,-3.73
2022-12-13T07:45:24.265Z,-3.72
2022-12-13T07:47:51.106Z,-3.69
2022-12-13T07:50:25.143Z,-3.68
2022-12-13T07:52:52.866Z,-3.68
2022-12-13T07:55:23.300Z,-3.80
2022-12-13T07:58:05.082Z,-3.70
2022-12-13T08:00:32.220Z,-3.78
2022-12-13T08:03:00.823Z,-3.82
2022-12-13T08:05:28.546Z,-3.78
2022-12-13T08:07:55.244Z,-3.76
2022-12-13T08:10:22.091Z,-3.83
2022-12-13T08:12:50.047Z,-3.74
2022-12-13T08:15:17.466Z,-3.78
2022-12-13T08:17:43.970Z,-3.84
2022-12-13T08:20:10.557Z,-3.79
2022-12-13T08:22:37.224Z,-3.75
2022-12-13T08:25:04.380Z,-3.75
2022-12-13T08:27:30.923Z,-3.79
2022-12-13T08:29:57.460Z,-3.79
2022-12-13T08:32:24.072Z,-3.78
2022-12-13T08:34:50.618Z,-3.72
2022-12-13T08:37:17.432Z,-3.72
2022-12-13T08:39:47.180Z,-3.75
2022-12-13T08:42:18.814Z,-3.76
2022-12-13T08:44:47.758Z,-3.72
2022-12-13T08:47:23.267Z,-3.78
2022-12-13T08:50:02.431Z,-3.77
2022-12-13T08:52:31.456Z,-3.77
2022-12-13T08:54:58.334Z,-3.82
2022-12-13T08:57:24.960Z,-3.90
2022-12-13T08:59:51.599Z,-3.80
2022-12-13T09:02:18.635Z,-3.73
2022-12-13T09:04:45.735Z,-3.76
2022-12-13T09:07:12.702Z,-3.75
2022-12-13T09:09:39.289Z,-3.71
2022-12-13T09:12:10.676Z,-3.67
2022-12-13T09:14:38.422Z,-3.69
2022-12-13T09:17:24.177Z,-3.69
2022-12-13T09:19:57.943Z,-3.72
2022-12-13T09:22:33.949Z,-3.78
2022-12-13T09:25:02.330Z,-3.75
2022-12-13T09:27:30.394Z,-3.74
2022-12-13T09:29:57.518Z,-3.76
2022-12-13T09:32:25.026Z,-3.80
2022-12-13T09:34:51.828Z,-3.70
2022-12-13T09:37:23.102Z,-3.76
2022-12-13T09:39:55.133Z,-3.66
2022-12-13T09:42:30.704Z,-3.77
2022-12-13T09:45:05.460Z,-3.75
2022-12-13T09:47:47.186Z,-3.80
2022-12-13T09:50:26.498Z,-3.71
2022-12-13T09:52:53.173Z,-3.65
2022-12-13T09:55:31.335Z,-3.64
2022-12-13T09:57:59.162Z,-3.69
2022-12-13T10:00:29.014Z,-3.69
2022-12-13T10:02:57.560Z,-3.75
2022-12-13T10:05:38.776Z,-3.71
2022-12-13T10:08:14.943Z,-3.77
2022-12-13T10:10:42.597Z,-3.71
2022-12-13T10:13:20.001Z,-3.72
2022-12-13T10:15:50.539Z,-3.83
2022-12-13T10:18:24.405Z,-3.78
2022-12-13T10:20:51.459Z,-3.82
2022-12-13T10:26:09.805Z,-3.83
2022-12-13T10:28:51.418Z,-3.96
2022-12-13T10:31:19.885Z,-3.98
2022-12-13T10:33:54.689Z,-3.96
2022-12-13T10:36:38.520Z,-3.89
2022-12-13T10:39:05.188Z,-3.93
2022-12-13T10:41:36.148Z,-3.90
2022-12-13T10:44:11.551Z,-3.91
2022-12-13T10:46:43.649Z,-3.78
2022-12-13T10:49:24.037Z,-3.73
2022-12-13T10:51:53.455Z,-3.76
2022-12-13T10:54:29.171Z,-3.78
2022-12-13T10:57:06.044Z,-3.82
2022-12-13T10:59:36.614Z,-3.84
2022-12-13T11:02:37.111Z,-3.75
2022-12-13T11:05:24.551Z,-3.67
2022-12-13T11:07:51.709Z,-3.58
2022-12-13T11:10:27.377Z,-3.67
2022-12-13T11:13:02.387Z,-3.73
2022-12-13T11:15:31.047Z,-3.68
2022-12-13T11:18:03.047Z,-3.50
2022-12-13T11:20:39.199Z,-3.56
2022-12-13T11:23:21.181Z,-3.69
2022-12-13T11:25:48.142Z,-3.70
2022-12-13T11:28:32.793Z,-3.83
2022-12-13T11:31:08.648Z,-3.80
2022-12-13T11:33:52.404Z,-3.96
2022-12-13T11:36:37.866Z,-4.04
2022-12-13T11:39:16.982Z,-4.03
2022-12-13T11:41:56.590Z,-3.99
2022-12-13T11:44:47.825Z,-3.95
2022-12-13T11:47:21.022Z,-3.99
2022-12-13T11:49:48.307Z,-4.11
2022-12-13T11:52:25.799Z,-4.13
2022-12-13T11:54:59.198Z,-4.14
2022-12-13T11:57:31.453Z,-4.20
2022-12-13T12:00:04.897Z,-4.20
2022-12-13T12:02:43.088Z,-4.18
2022-12-13T12:05:19.464Z,-4.13
2022-12-13T12:08:20.987Z,-3.95
2022-12-13T12:10:45.679Z,-3.87
2022-12-13T12:13:26.792Z,-3.87
2022-12-13T12:16:10.843Z,-3.80
2022-12-13T12:18:37.657Z,-3.80
2022-12-13T12:22:12.232Z,-3.76
2022-12-13T12:24:38.267Z,-3.77
2022-12-13T12:27:37.825Z,-3.80
2022-12-13T12:30:36.523Z,-3.80
2022-12-13T12:33:07.684Z,-3.82
2022-12-13T12:35:46.820Z,-3.84
2022-12-13T12:38:48.863Z,-3.96
2022-12-13T12:41:44.945Z,-3.97
2022-12-13T12:44:20.829Z,-3.85
2022-12-13T12:47:32.599Z,-3.68
2022-12-13T12:50:02.587Z,-3.79
2022-12-13T12:52:55.579Z,-3.72
2022-12-13T12:55:41.115Z,-3.99
2022-12-13T12:58:24.531Z,-4.14
2022-12-13T13:01:12.031Z,-4.18
2022-12-13T13:03:41.647Z,-4.20
2022-12-13T13:06:27.327Z,-4.10
2022-12-13T13:08:59.363Z,-4.08
2022-12-13T13:11:29.193Z,-3.97
2022-12-13T13:14:02.199Z,-3.94
2022-12-13T13:16:37.394Z,-3.86
2022-12-13T13:19:25.972Z,-3.77
2022-12-13T13:21:55.369Z,-3.64
2022-12-13T13:24:30.150Z,-3.75
2022-12-13T13:26:58.801Z,-3.75
2022-12-13T13:29:27.767Z,-3.83
2022-12-13T13:32:11.078Z,-3.82
2022-12-13T13:34:42.699Z,-3.72
2022-12-13T13:37:23.201Z,-3.76
2022-12-13T13:39:52.850Z,-3.79
2022-12-13T13:42:21.697Z,-3.82
2022-12-13T13:44:48.298Z,-3.78
2022-12-13T13:47:16.139Z,-3.82
2022-12-13T13:50:08.866Z,-3.79
2022-12-13T13:52:44.502Z,-3.95
2022-12-13T13:55:22.786Z,-4.05
2022-12-13T13:58:35.210Z,-4.18
2022-12-13T14:01:23.099Z,-4.39
2022-12-13T14:04:10.285Z,-4.54
2022-12-13T14:06:53.032Z,-4.68
2022-12-13T14:09:45.930Z,-4.74
2022-12-13T14:12:40.524Z,-4.82
2022-12-13T14:15:37.752Z,-4.97
2022-12-13T14:18:41.814Z,-5.12
2022-12-13T14:21:42.680Z,-5.20
2022-12-13T14:24:16.229Z,-5.24
2022-12-13T14:26:58.525Z,-5.27
2022-12-13T14:29:31.890Z,-5.20
2022-12-13T14:31:59.018Z,-5.26
2022-12-13T14:34:28.160Z,-5.28
2022-12-13T14:37:00.683Z,-5.24
2022-12-13T14:39:36.860Z,-5.24
2022-12-13T14:42:21.700Z,-5.43
2022-12-13T14:44:48.184Z,-5.53
2022-12-13T14:47:14.819Z,-5.49
2022-12-13T14:49:48.951Z,-5.60
2022-12-13T14:52:27.766Z,-5.57
2022-12-13T14:55:04.521Z,-5.54
2022-12-13T14:57:32.365Z,-5.56
2022-12-13T15:00:00.340Z,-5.55
2022-12-13T15:02:32.263Z,-5.58
2022-12-13T15:05:04.161Z,-5.51
2022-12-13T15:07:41.322Z,-5.53
2022-12-13T15:10:37.741Z,-5.58
2022-12-13T15:13:04.866Z,-5.55
2022-12-13T15:15:35.178Z,-5.64
2022-12-13T15:18:10.632Z,-5.56
2022-12-13T15:20:41.572Z,-5.59
2022-12-13T15:23:37.121Z,-5.61
2022-12-13T15:26:12.830Z,-5.64
2022-12-13T15:28:56.529Z,-5.57
2022-12-13T15:31:23.530Z,-5.60
2022-12-13T15:33:51.339Z,-5.55
2022-12-13T15:36:23.979Z,-5.51
2022-12-13T15:38:56.381Z,-5.46
2022-12-13T15:41:27.181Z,-5.51
2022-12-13T15:43:56.278Z,-5.47
2022-12-13T15:46:27.042Z,-5.44
2022-12-13T15:48:55.298Z,-5.41
2022-12-13T15:51:29.266Z,-5.43
2022-12-13T15:54:09.336Z,-5.44
2022-12-13T15:56:55.827Z,-5.40
2022-12-13T15:59:32.372Z,-5.44
2022-12-13T16:01:59.359Z,-5.45
2022-12-13T16:04:28.592Z,-5.39
2022-12-13T16:06:58.523Z,-5.33
2022-12-13T16:09:27.568Z,-5.34
2022-12-13T16:11:59.833Z,-5.28
2022-12-13T16:14:32.315Z,-5.25
2022-12-13T16:17:24.618Z,-5.22
2022-12-13T16:19:53.041Z,-5.26
2022-12-13T16:22:21.904Z,-5.22
2022-12-13T16:24:48.884Z,-5.23
2022-12-13T16:27:15.929Z,-5.19
2022-12-13T16:29:42.793Z,-5.18
2022-12-13T16:32:10.711Z,-5.15
2022-12-13T16:34:37.989Z,-5.15
2022-12-13T16:37:09.025Z,-5.22
2022-12-13T16:39:51.775Z,-5.07
2022-12-13T16:42:18.903Z,-5.12
2022-12-13T16:44:47.234Z,-5.21
2022-12-13T16:47:24.414Z,-5.21
2022-12-13T16:49:56.871Z,-5.27
2022-12-13T16:52:23.539Z,-5.35
2022-12-13T16:54:51.253Z,-5.41
2022-12-13T16:57:17.995Z,-5.33
2022-12-13T16:59:44.731Z,-5.39
2022-12-13T17:02:17.023Z,-5.43
2022-12-13T17:04:43.719Z,-5.40
2022-12-13T17:07:10.382Z,-5.43
2022-12-13T17:09:37.022Z,-5.54
2022-12-13T17:12:03.930Z,-5.42
2022-12-13T17:14:30.398Z,-5.47
2022-12-13T17:16:57.030Z,-5.51
2022-12-13T17:19:24.098Z,-5.55
2022-12-13T17:21:50.996Z,-5.53
2022-12-13T17:24:17.457Z,-5.60
2022-12-13T17:26:54.016Z,-5.63
2022-12-13T17:29:22.534Z,-5.68
2022-12-13T17:31:49.292Z,-5.67
2022-12-13T17:34:15.869Z,-5.62
2022-12-13T17:36:43.577Z,-5.62
2022-12-13T17:39:12.392Z,-5.65
2022-12-13T17:41:39.106Z,-5.55
2022-12-13T17:44:06.250Z,-5.69
2022-12-13T17:46:37.640Z,-5.66
2022-12-13T17:49:04.640Z,-5.79
2022-12-13T17:51:31.140Z,-5.74
2022-12-13T17:53:57.679Z,-5.73
2022-12-13T17:56:24.241Z,-5.73
2022-12-13T17:58:50.800Z,-5.61
2022-12-13T18:01:20.104Z,-5.61
2022-12-13T18:03:49.096Z,-5.74
2022-12-13T18:06:15.681Z,-5.72
2022-12-13T18:08:44.468Z,-5.65
2022-12-13T18:11:32.385Z,-5.74
2022-12-13T18:13:59.448Z,-5.79
2022-12-13T18:16:35.492Z,-5.80
2022-12-13T18:19:04.075Z,-5.64
2022-12-13T18:21:30.585Z,-5.70
2022-12-13T18:23:59.232Z,-5.65
2022-12-13T18:26:25.784Z,-5.64
2022-12-13T18:28:52.561Z,-5.78
2022-12-13T18:31:23.208Z,-5.80
2022-12-13T18:33:51.346Z,-5.76
2022-12-13T18:36:19.343Z,-5.72
2022-12-13T18:38:46.644Z,-5.79
2022-12-13T18:41:15.922Z,-5.76
2022-12-13T18:43:43.851Z,-5.77
2022-12-13T18:46:11.575Z,-5.77
2022-12-13T18:48:38.441Z,-5.82
2022-12-13T18:51:07.689Z,-5.74
2022-12-13T18:53:38.947Z,-5.77
2022-12-13T18:56:17.725Z,-5.79
2022-12-13T18:58:46.405Z,-5.79
2022-12-13T19:01:13.597Z,-5.85
2022-12-13T19:03:40.489Z,-5.84
2022-12-13T19:06:07.725Z,-5.91
2022-12-13T19:08:36.639Z,-5.94
2022-12-13T19:11:03.691Z,-5.89
2022-12-13T19:13:31.795Z,-5.95
2022-12-13T19:16:03.784Z,-5.94
2022-12-13T19:18:30.414Z,-6.05
2022-12-13T19:20:57.092Z,-5.95
2022-12-13T19:23:23.982Z,-6.00
2022-12-13T19:25:51.418Z,-5.96
2022-12-13T19:28:18.303Z,-6.00
2022-12-13T19:30:47.764Z,-6.11
2022-12-13T19:33:15.243Z,-6.12
2022-12-13T19:35:43.316Z,-6.15
2022-12-13T19:38:10.101Z,-6.17
2022-12-13T19:40:42.615Z,-6.17
2022-12-13T19:43:11.509Z,-6.13
2022-12-13T19:45:38.492Z,-6.18
2022-12-13T19:48:05.414Z,-6.17
2022-12-13T19:50:32.302Z,-6.14
2022-12-13T19:52:59.292Z,-6.09
2022-12-13T19:55:26.193Z,-6.16
2022-12-13T19:57:53.209Z,-6.10
2022-12-13T20:00:19.911Z,-6.16
2022-12-13T20:02:46.588Z,-6.20
2022-12-13T20:05:13.214Z,-6.28
2022-12-13T20:07:41.006Z,-6.39
2022-12-13T20:10:11.578Z,-6.45
2022-12-13T20:12:40.890Z,-6.45
2022-12-13T20:15:09.383Z,-6.49
2022-12-13T20:17:39.596Z,-6.44
2022-12-13T20:20:06.550Z,-6.65
2022-12-13T20:22:35.838Z,-6.61
2022-12-13T20:25:02.818Z,-6.59
2022-12-13T20:27:29.450Z,-6.71
2022-12-13T20:29:56.496Z,-6.87
2022-12-13T20:32:23.509Z,-7.03
2022-12-13T20:34:54.526Z,-7.11
2022-12-13T20:37:22.560Z,-7.16
2022-12-13T20:39:49.400Z,-7.10
2022-12-13T20:42:16.168Z,-7.26
2022-12-13T20:44:43.155Z,-7.23
2022-12-13T20:47:12.614Z,-7.36
2022-12-13T20:49:40.141Z,-7.38
2022-12-13T20:52:06.729Z,-7.36
2022-12-13T20:54:35.123Z,-7.31
2022-12-13T20:57:01.705Z,-7.37
2022-12-13T20:59:32.312Z,-7.44
2022-12-13T21:01:58.868Z,-7.46
2022-12-13T21:04:26.006Z,-7.47
2022-12-13T21:06:52.595Z,-7.57
2022-12-13T21:09:19.165Z,-7.62
2022-12-13T21:11:47.741Z,-7.54
2022-12-13T21:14:22.987Z,-7.49
2022-12-13T21:16:53.803Z,-7.64
2022-12-13T21:19:23.575Z,-7.51
2022-12-13T21:21:50.969Z,-7.67
2022-12-13T21:24:19.167Z,-7.67
2022-12-13T21:26:46.060Z,-7.78
2022-12-13T21:29:13.991Z,-7.88
2022-12-13T21:31:43.247Z,-7.83
2022-12-13T21:34:11.327Z,-7.87
2022-12-13T21:36:40.543Z,-7.80
2022-12-13T21:39:12.933Z,-7.92
2022-12-13T21:41:40.270Z,-7.85
2022-12-13T21:44:07.015Z,-7.83
2022-12-13T21:47:10.188Z,-7.87
2022-12-13T21:49:21.303Z,-7.75
2022-12-13T21:51:48.766Z,-7.89
2022-12-13T21:54:15.792Z,-7.91
2022-12-13T21:57:00.843Z,-7.86
2022-12-13T21:59:28.755Z,-7.83
2022-12-13T22:02:13.308Z,-7.85
2022-12-13T22:04:41.305Z,-7.76
2022-12-13T22:07:08.759Z,-7.78
2022-12-13T22:09:36.296Z,-7.66
2022-12-13T22:12:10.296Z,-7.84
2022-12-13T22:14:37.346Z,-7.84
2022-12-13T22:17:04.290Z,-7.90
2022-12-13T22:19:30.853Z,-7.91
2022-12-13T22:21:57.473Z,-7.92
2022-12-13T22:24:24.092Z,-7.81
2022-12-13T22:26:50.684Z,-8.02
2022-12-13T22:29:17.273Z,-7.92
2022-12-13T22:31:43.945Z,-7.87
2022-12-13T22:34:15.626Z,-8.03
2022-12-13T22:36:42.219Z,-7.88
2022-12-13T22:39:16.478Z,-7.82
2022-12-13T22:41:43.076Z,-7.83
2022-12-13T22:44:11.863Z,-8.00
2022-12-13T22:46:38.439Z,-8.00
2022-12-13T22:49:05.663Z,-7.89
2022-12-13T22:51:32.414Z,-7.74
2022-12-13T22:53:59.143Z,-7.80
2022-12-13T22:56:25.780Z,-7.85
2022-12-13T22:58:54.323Z,-7.94
2022-12-13T23:01:26.299Z,-7.86
2022-12-13T23:03:53.223Z,-7.75
2022-12-13T23:06:22.496Z,-7.89
2022-12-13T23:08:54.351Z,-8.01
2022-12-13T23:11:40.324Z,-8.13
2022-12-13T23:14:09.323Z,-8.22
2022-12-13T23:16:36.473Z,-8.34
2022-12-13T23:19:32.222Z,-8.22
2022-12-13T23:21:50.864Z,-8.30
2022-12-13T23:24:17.497Z,-8.31
2022-12-13T23:26:44.091Z,-8.26
2022-12-13T23:29:10.850Z,-8.21
2022-12-13T23:31:42.112Z,-8.37
2022-12-13T23:34:11.764Z,-8.26
2022-12-13T23:36:38.239Z,-8.18
2022-12-13T23:39:06.456Z,-8.18
2022-12-13T23:41:34.211Z,-8.38
2022-12-13T23:44:01.250Z,-8.21
2022-12-13T23:46:33.594Z,-8.29
2022-12-13T23:49:00.881Z,-8.29
2022-12-13T23:51:28.304Z,-8.22
2022-12-13T23:53:54.750Z,-8.26
2022-12-13T23:56:21.970Z,-8.04
2022-12-13T23:58:48.658Z,-8.07
